createdAt,value
2022-12-17T00:00:36.208Z,35.97
2022-12-17T00:03:21.728Z,34.33
2022-12-17T00:06:06.827Z,30.25
2022-12-17T00:08:52.351Z,40.42
2022-12-17T00:11:37.763Z,40.05
2022-12-17T00:14:23.292Z,32.35
2022-12-17T00:17:11.718Z,36.33
2022-12-17T00:19:57.042Z,39.88
2022-12-17T00:22:42.387Z,44.47
2022-12-17T00:25:27.964Z,48.38
2022-12-17T00:28:13.041Z,41.97
2022-12-17T00:30:58.261Z,45.75
2022-12-17T00:33:43.936Z,37.75
2022-12-17T00:36:29.205Z,41.55
2022-12-17T00:39:14.626Z,36.53
2022-12-17T00:41:59.924Z,40.28
2022-12-17T00:44:45.253Z,39.70
2022-12-17T00:47:30.865Z,40.50
2022-12-17T00:50:15.974Z,34.10
2022-12-17T00:53:01.377Z,37.28
2022-12-17T00:55:46.670Z,45.95
2022-12-17T00:58:32.073Z,40.25
2022-12-17T01:01:19.112Z,38.60
2022-12-17T01:04:04.774Z,35.90
2022-12-17T01:06:51.632Z,40.67
2022-12-17T01:09:37.584Z,41.30
2022-12-17T01:12:24.065Z,39.58
2022-12-17T01:15:09.511Z,42.33
2022-12-17T01:17:56.297Z,34.53
2022-12-17T01:20:41.779Z,43.75
2022-12-17T01:23:27.514Z,31.45
2022-12-17T01:26:14.341Z,41.75
2022-12-17T01:28:59.666Z,41.63
2022-12-17T01:31:45.293Z,38.17
2022-12-17T01:34:30.689Z,33.35
2022-12-17T01:37:16.048Z,34.05
2022-12-17T01:40:01.332Z,37.00
2022-12-17T01:42:46.612Z,36.20
2022-12-17T01:45:33.030Z,32.78
2022-12-17T01:48:22.312Z,33.35
2022-12-17T01:51:12.020Z,32.38
2022-12-17T01:54:01.951Z,28.83
2022-12-17T01:56:47.419Z,37.63
2022-12-17T01:59:38.507Z,46.08
2022-12-17T02:02:23.915Z,34.33
2022-12-17T02:05:09.193Z,42.40
2022-12-17T02:08:06.784Z,36.10
2022-12-17T02:11:06.461Z,35.00
2022-12-17T02:13:58.551Z,33.15
2022-12-17T02:16:53.530Z,37.20
2022-12-17T02:19:57.764Z,29.85
2022-12-17T02:22:46.219Z,38.90
2022-12-17T02:25:47.346Z,31.75
2022-12-17T02:28:32.900Z,36.55
2022-12-17T02:31:18.362Z,33.20
2022-12-17T02:34:04.149Z,36.58
2022-12-17T02:36:49.643Z,29.90
2022-12-17T02:39:34.878Z,36.42
2022-12-17T02:42:20.231Z,33.42
2022-12-17T02:45:05.564Z,27.65
2022-12-17T02:47:51.036Z,37.72
2022-12-17T02:50:36.496Z,35.42
2022-12-17T02:53:22.495Z,40.88
2022-12-17T02:56:07.875Z,29.25
2022-12-17T02:58:53.221Z,41.00
2022-12-17T03:01:38.631Z,27.08
2022-12-17T03:04:23.878Z,42.45
2022-12-17T03:07:09.309Z,39.13
2022-12-17T03:09:54.603Z,38.63
2022-12-17T03:12:39.877Z,34.63
2022-12-17T03:15:25.728Z,33.83
2022-12-17T03:18:12.135Z,38.70
2022-12-17T03:20:57.524Z,34.08
2022-12-17T03:23:42.981Z,39.33
2022-12-17T03:26:28.350Z,34.13
2022-12-17T03:29:13.703Z,48.10
2022-12-17T03:31:59.020Z,35.10
2022-12-17T03:34:44.369Z,32.35
2022-12-17T03:37:29.777Z,36.97
2022-12-17T03:40:15.082Z,34.25
2022-12-17T03:43:00.464Z,26.83
2022-12-17T03:45:45.844Z,39.47
2022-12-17T03:48:33.266Z,32.47
2022-12-17T03:51:19.516Z,28.42
2022-12-17T03:54:05.321Z,49.67
2022-12-17T03:56:50.574Z,27.63
2022-12-17T03:59:35.894Z,26.40
2022-12-17T04:02:21.301Z,39.50
2022-12-17T04:05:06.624Z,30.27
2022-12-17T04:07:51.953Z,34.90
2022-12-17T04:10:37.365Z,30.27
2022-12-17T04:13:22.684Z,30.90
2022-12-17T04:16:08.269Z,24.83
2022-12-17T04:18:53.681Z,32.83
2022-12-17T04:21:39.145Z,36.08
2022-12-17T04:24:24.704Z,33.90
2022-12-17T04:27:10.019Z,26.73
2022-12-17T04:29:55.487Z,37.40
2022-12-17T04:32:40.801Z,42.35
2022-12-17T04:35:26.383Z,31.75
2022-12-17T04:38:11.771Z,36.30
2022-12-17T04:40:57.140Z,32.67
2022-12-17T04:43:42.580Z,23.45
2022-12-17T04:46:28.099Z,23.77
2022-12-17T04:49:13.414Z,23.83
2022-12-17T04:51:58.666Z,20.30
2022-12-17T04:54:43.930Z,29.88
2022-12-17T04:57:29.368Z,21.95
2022-12-17T05:00:14.692Z,33.88
2022-12-17T05:03:00.200Z,27.48
2022-12-17T05:05:45.527Z,25.20
2022-12-17T05:08:30.979Z,34.55
2022-12-17T05:11:23.652Z,32.78
2022-12-17T05:14:09.113Z,28.60
2022-12-17T05:16:54.328Z,24.70
2022-12-17T05:19:39.613Z,25.98
2022-12-17T05:22:25.024Z,35.50
2022-12-17T05:25:10.467Z,34.45
2022-12-17T05:27:55.883Z,43.53
2022-12-17T05:30:41.215Z,33.50
2022-12-17T05:33:27.041Z,40.63
2022-12-17T05:36:12.392Z,36.60
2022-12-17T05:38:57.730Z,24.95
2022-12-17T05:41:43.151Z,30.05
2022-12-17T05:44:28.548Z,34.35
2022-12-17T05:47:13.920Z,24.27
2022-12-17T05:49:59.364Z,25.88
2022-12-17T05:52:44.713Z,25.88
2022-12-17T05:55:30.174Z,31.25
2022-12-17T05:58:23.792Z,39.55
2022-12-17T06:01:09.146Z,24.90
2022-12-17T06:03:54.557Z,30.08
2022-12-17T06:06:39.673Z,32.42
2022-12-17T06:09:25.007Z,22.10
2022-12-17T06:12:10.356Z,19.05
2022-12-17T06:14:55.620Z,25.95
2022-12-17T06:17:41.170Z,24.95
2022-12-17T06:20:27.105Z,24.52
2022-12-17T06:23:23.740Z,23.92
2022-12-17T06:26:11.920Z,22.10
2022-12-17T06:28:57.438Z,20.55
2022-12-17T06:31:42.935Z,24.30
2022-12-17T06:34:28.361Z,36.38
2022-12-17T06:37:13.746Z,18.80
2022-12-17T06:39:59.140Z,29.55
2022-12-17T06:42:44.561Z,19.98
2022-12-17T06:45:38.080Z,17.58
2022-12-17T06:48:26.108Z,21.35
2022-12-17T06:51:15.596Z,25.98
2022-12-17T06:54:00.916Z,20.80
2022-12-17T06:56:47.065Z,28.38
2022-12-17T06:59:32.329Z,29.15
2022-12-17T07:02:17.865Z,25.98
2022-12-17T07:05:02.957Z,34.30
2022-12-17T07:07:48.247Z,21.40
2022-12-17T07:10:33.662Z,23.02
2022-12-17T07:13:26.108Z,25.13
2022-12-17T07:16:11.971Z,24.08
2022-12-17T07:18:57.974Z,23.80
2022-12-17T07:21:43.616Z,31.92
2022-12-17T07:24:29.297Z,20.13
2022-12-17T07:27:14.488Z,25.27
2022-12-17T07:29:59.974Z,20.92
2022-12-17T07:32:45.410Z,34.42
2022-12-17T07:35:30.945Z,27.15
2022-12-17T07:38:20.244Z,37.50
2022-12-17T07:41:05.488Z,27.15
2022-12-17T07:43:53.287Z,17.33
2022-12-17T07:46:38.764Z,31.05
2022-12-17T07:49:25.899Z,22.23
2022-12-17T07:52:11.737Z,20.25
2022-12-17T07:54:57.049Z,32.58
2022-12-17T07:57:42.393Z,21.73
2022-12-17T08:00:28.052Z,18.17
2022-12-17T08:03:17.660Z,29.20
2022-12-17T08:06:02.989Z,29.95
2022-12-17T08:08:48.445Z,21.85
2022-12-17T08:11:33.779Z,40.92
2022-12-17T08:14:19.289Z,17.77
2022-12-17T08:17:04.553Z,22.70
2022-12-17T08:19:50.063Z,21.58
2022-12-17T08:22:35.442Z,20.77
2022-12-17T08:25:20.776Z,34.75
2022-12-17T08:28:11.049Z,24.55
2022-12-17T08:31:07.506Z,26.13
2022-12-17T08:33:53.356Z,28.45
2022-12-17T08:36:38.587Z,36.90
2022-12-17T08:39:23.966Z,22.50
2022-12-17T08:42:09.417Z,20.38
2022-12-17T08:44:54.760Z,29.02
2022-12-17T08:47:42.719Z,19.92
2022-12-17T08:50:28.164Z,39.72
2022-12-17T08:53:17.652Z,33.92
2022-12-17T08:56:03.147Z,31.98
2022-12-17T08:58:48.576Z,22.90
2022-12-17T09:01:34.076Z,34.80
2022-12-17T09:04:19.299Z,33.33
2022-12-17T09:07:04.696Z,26.48
2022-12-17T09:09:49.991Z,30.88
2022-12-17T09:12:35.348Z,28.30
2022-12-17T09:15:20.737Z,36.42
2022-12-17T09:18:06.253Z,31.83
2022-12-17T09:20:51.463Z,43.97
2022-12-17T09:23:37.249Z,24.35
2022-12-17T09:26:22.805Z,21.48
2022-12-17T09:29:08.309Z,20.83
2022-12-17T09:31:53.772Z,20.55
2022-12-17T09:34:39.163Z,23.40
2022-12-17T09:37:24.532Z,25.80
2022-12-17T09:40:09.822Z,24.48
2022-12-17T09:43:12.964Z,24.65
2022-12-17T09:46:11.651Z,27.88
2022-12-17T09:49:05.707Z,40.30
2022-12-17T09:51:52.749Z,26.50
2022-12-17T09:54:47.826Z,36.75
2022-12-17T09:57:38.712Z,27.15
2022-12-17T10:01:00.911Z,23.92
2022-12-17T10:03:48.171Z,28.08
2022-12-17T10:06:42.908Z,24.75
2022-12-17T10:09:37.457Z,34.50
2022-12-17T10:12:35.160Z,27.05
2022-12-17T10:15:20.365Z,31.48
2022-12-17T10:18:05.815Z,28.05
2022-12-17T10:20:56.905Z,22.95
2022-12-17T10:23:51.992Z,29.90
2022-12-17T10:26:40.104Z,23.45
2022-12-17T10:29:52.092Z,24.83
2022-12-17T10:32:41.967Z,23.65
2022-12-17T10:35:39.076Z,26.48
2022-12-17T10:38:56.875Z,27.52
2022-12-17T10:41:45.005Z,20.25
2022-12-17T10:44:50.415Z,21.17
2022-12-17T10:47:43.929Z,28.50
2022-12-17T10:50:31.862Z,28.30
2022-12-17T10:53:18.153Z,23.48
2022-12-17T10:56:13.286Z,20.27
2022-12-17T10:59:07.911Z,20.60
2022-12-17T11:01:53.896Z,25.05
2022-12-17T11:04:44.160Z,16.45
2022-12-17T11:07:54.688Z,23.83
2022-12-17T11:10:49.664Z,22.70
2022-12-17T11:13:49.387Z,26.52
2022-12-17T11:16:52.108Z,34.40
2022-12-17T11:20:07.170Z,33.47
2022-12-17T11:23:02.102Z,22.25
2022-12-17T11:26:18.714Z,24.27
2022-12-17T11:29:04.106Z,19.50
2022-12-17T11:32:01.163Z,18.60
2022-12-17T11:35:20.382Z,23.98
2022-12-17T11:38:24.256Z,22.00
2022-12-17T11:41:20.393Z,21.15
2022-12-17T11:44:26.617Z,34.15
2022-12-17T11:47:43.093Z,27.08
2022-12-17T11:50:47.168Z,35.53
2022-12-17T11:53:57.083Z,26.08
2022-12-17T11:56:51.020Z,25.98
2022-12-17T11:59:55.149Z,24.33
2022-12-17T12:03:17.064Z,24.38
2022-12-17T12:06:11.279Z,21.70
2022-12-17T12:09:14.596Z,18.42
2022-12-17T12:12:21.397Z,23.55
2022-12-17T12:15:27.932Z,19.77
2022-12-17T12:18:22.036Z,23.40
2022-12-17T12:21:48.885Z,23.73
2022-12-17T12:24:58.824Z,18.70
2022-12-17T12:27:53.156Z,25.45
2022-12-17T12:30:48.108Z,24.58
2022-12-17T12:33:48.264Z,18.70
2022-12-17T12:36:37.144Z,21.83
2022-12-17T12:39:23.696Z,21.23
2022-12-17T12:42:37.379Z,22.98
2022-12-17T12:45:42.161Z,18.90
2022-12-17T12:48:42.351Z,24.58
2022-12-17T12:51:43.424Z,20.67
2022-12-17T12:54:51.514Z,28.58
2022-12-17T12:57:48.342Z,33.80
2022-12-17T13:01:06.236Z,26.58
2022-12-17T13:04:03.541Z,26.05
2022-12-17T13:06:51.220Z,23.80
2022-12-17T13:09:18.048Z,32.83
2022-12-17T13:11:48.184Z,25.77
2022-12-17T13:14:44.201Z,19.95
2022-12-17T13:17:16.793Z,20.23
2022-12-17T13:19:47.214Z,20.52
2022-12-17T13:22:23.371Z,20.73
2022-12-17T13:24:54.447Z,24.58
2022-12-17T13:27:36.044Z,29.17
2022-12-17T13:30:17.762Z,20.42
2022-12-17T13:33:05.868Z,16.30
2022-12-17T13:36:06.103Z,22.23
2022-12-17T13:38:41.632Z,17.02
2022-12-17T13:41:12.978Z,22.98
2022-12-17T13:43:44.673Z,17.50
2022-12-17T13:46:25.698Z,18.23
2022-12-17T13:48:57.756Z,16.38
2022-12-17T13:51:28.124Z,17.63
2022-12-17T13:53:57.831Z,23.40
2022-12-17T13:56:27.461Z,19.40
2022-12-17T13:58:55.683Z,19.48
2022-12-17T14:01:23.080Z,22.70
2022-12-17T14:04:08.090Z,20.67
2022-12-17T14:06:37.795Z,19.98
2022-12-17T14:09:05.214Z,23.80
2022-12-17T14:11:51.972Z,17.60
2022-12-17T14:14:32.337Z,15.63
2022-12-17T14:17:00.498Z,19.10
2022-12-17T14:19:28.417Z,21.88
2022-12-17T14:21:55.844Z,20.85
2022-12-17T14:24:27.002Z,19.10
2022-12-17T14:26:56.386Z,14.30
2022-12-17T14:29:25.500Z,12.80
2022-12-17T14:32:21.193Z,25.63
2022-12-17T14:34:47.980Z,16.98
2022-12-17T14:37:21.438Z,15.00
2022-12-17T14:39:48.506Z,10.60
2022-12-17T14:42:26.574Z,17.85
2022-12-17T14:44:57.756Z,13.00
2022-12-17T14:47:34.702Z,13.40
2022-12-17T14:50:11.893Z,16.27
2022-12-17T14:52:53.112Z,9.88
2022-12-17T14:55:28.633Z,14.50
2022-12-17T14:58:13.616Z,10.45
2022-12-17T15:00:41.489Z,8.15
2022-12-17T15:03:14.639Z,8.93
2022-12-17T15:05:41.278Z,13.63
2022-12-17T15:08:07.908Z,13.95
2022-12-17T15:10:34.572Z,9.68
2022-12-17T15:13:01.303Z,11.18
2022-12-17T15:15:28.360Z,11.10
2022-12-17T15:17:55.028Z,13.02
2022-12-17T15:20:21.688Z,8.30
2022-12-17T15:22:48.584Z,13.75
2022-12-17T15:25:18.093Z,8.80
2022-12-17T15:27:45.456Z,9.27
2022-12-17T15:30:19.010Z,13.85
2022-12-17T15:32:47.148Z,11.05
2022-12-17T15:35:14.423Z,12.32
2022-12-17T15:37:41.081Z,12.50
2022-12-17T15:40:11.757Z,14.65
2022-12-17T15:43:04.459Z,18.90
2022-12-17T15:45:31.855Z,16.80
2022-12-17T15:47:58.392Z,14.88
2022-12-17T15:50:25.014Z,14.48
2022-12-17T15:52:51.590Z,20.20
2022-12-17T15:55:18.197Z,14.60
2022-12-17T15:57:44.874Z,19.27
2022-12-17T16:00:12.180Z,16.15
2022-12-17T16:02:39.119Z,15.13
2022-12-17T16:05:06.532Z,17.80
2022-12-17T16:07:33.291Z,16.73
2022-12-17T16:10:04.792Z,12.20
2022-12-17T16:12:32.758Z,16.77
2022-12-17T16:14:59.331Z,13.38
2022-12-17T16:17:25.903Z,16.52
2022-12-17T16:19:52.562Z,14.70
2022-12-17T16:22:19.295Z,17.25
2022-12-17T16:24:46.090Z,14.90
2022-12-17T16:27:13.901Z,16.02
2022-12-17T16:29:40.500Z,19.83
2022-12-17T16:32:07.061Z,19.00
2022-12-17T16:34:33.727Z,21.95
2022-12-17T16:37:01.472Z,22.00
2022-12-17T16:39:28.607Z,18.45
2022-12-17T16:41:55.290Z,25.10
2022-12-17T16:44:21.845Z,18.83
2022-12-17T16:46:48.706Z,16.60
2022-12-17T16:49:20.574Z,23.10
2022-12-17T16:51:50.519Z,22.65
2022-12-17T16:54:20.355Z,20.50
2022-12-17T16:56:47.747Z,28.35
2022-12-17T16:59:15.910Z,21.13
2022-12-17T17:01:45.521Z,25.10
2022-12-17T17:04:14.067Z,34.03
2022-12-17T17:06:44.857Z,21.10
2022-12-17T17:09:12.523Z,15.15
2022-12-17T17:11:39.593Z,21.88
2022-12-17T17:14:07.523Z,16.85
2022-12-17T17:16:34.620Z,23.80
2022-12-17T17:19:01.822Z,20.52
2022-12-17T17:21:30.054Z,39.22
2022-12-17T17:24:07.167Z,19.92
2022-12-17T17:26:34.908Z,24.17
2022-12-17T17:29:02.182Z,19.42
2022-12-17T17:32:01.290Z,24.58
2022-12-17T17:34:15.873Z,23.40
2022-12-17T17:36:42.855Z,26.33
2022-12-17T17:39:09.432Z,28.50
2022-12-17T17:41:36.955Z,24.08
2022-12-17T17:44:11.784Z,20.23
2022-12-17T17:46:39.059Z,31.77
2022-12-17T17:49:07.512Z,25.02
2022-12-17T17:52:08.524Z,21.30
2022-12-17T17:54:24.128Z,26.73
2022-12-17T17:56:50.716Z,16.80
2022-12-17T17:59:19.193Z,24.27
2022-12-17T18:01:49.319Z,21.58
2022-12-17T18:04:19.223Z,23.95
2022-12-17T18:07:09.044Z,19.55
2022-12-17T18:09:33.736Z,25.23
2022-12-17T18:12:20.327Z,15.10
2022-12-17T18:15:12.520Z,21.98
2022-12-17T18:17:33.433Z,17.05
2022-12-17T18:20:00.001Z,24.55
2022-12-17T18:22:28.259Z,30.55
2022-12-17T18:24:54.912Z,24.90
2022-12-17T18:27:21.472Z,24.60
2022-12-17T18:29:48.032Z,19.13
2022-12-17T18:32:14.601Z,19.33
2022-12-17T18:34:41.385Z,18.58
2022-12-17T18:37:08.115Z,22.00
2022-12-17T18:39:34.832Z,28.08
2022-12-17T18:42:20.207Z,27.00
2022-12-17T18:44:46.876Z,29.17
2022-12-17T18:47:13.740Z,23.67
2022-12-17T18:49:40.469Z,33.58
2022-12-17T18:52:11.754Z,19.92
2022-12-17T18:54:41.499Z,32.92
2022-12-17T18:57:08.160Z,23.10
2022-12-17T18:59:34.915Z,24.30
2022-12-17T19:02:01.757Z,27.80
2022-12-17T19:04:28.502Z,18.13
2022-12-17T19:06:55.356Z,19.70
2022-12-17T19:09:25.403Z,21.58
2022-12-17T19:11:52.915Z,13.75
2022-12-17T19:14:22.076Z,12.52
2022-12-17T19:16:50.162Z,13.30
2022-12-17T19:19:17.323Z,21.23
2022-12-17T19:21:44.324Z,13.40
2022-12-17T19:24:16.580Z,21.15
2022-12-17T19:26:44.052Z,13.73
2022-12-17T19:29:12.327Z,11.05
2022-12-17T19:31:39.534Z,20.25
2022-12-17T19:34:07.903Z,14.80
2022-12-17T19:36:35.965Z,16.23
2022-12-17T19:39:05.771Z,13.98
2022-12-17T19:41:32.832Z,18.25
2022-12-17T19:44:01.743Z,17.95
2022-12-17T19:46:29.846Z,15.98
2022-12-17T19:48:57.275Z,16.05
2022-12-17T19:51:26.133Z,22.30
2022-12-17T19:53:54.511Z,14.27
2022-12-17T19:56:29.972Z,31.25
2022-12-17T19:59:02.259Z,17.08
2022-12-17T20:01:32.000Z,31.05
2022-12-17T20:03:59.069Z,25.20
2022-12-17T20:06:31.374Z,17.92
2022-12-17T20:08:59.212Z,19.25
2022-12-17T20:11:35.793Z,22.60
2022-12-17T20:14:15.843Z,12.10
2022-12-17T20:16:46.473Z,13.20
2022-12-17T20:19:16.257Z,17.58
2022-12-17T20:21:43.213Z,16.02
2022-12-17T20:24:11.198Z,12.27
2022-12-17T20:26:38.524Z,20.70
2022-12-17T20:29:06.387Z,9.73
2022-12-17T20:31:33.981Z,16.45
2022-12-17T20:34:01.657Z,19.27
2022-12-17T20:36:28.258Z,14.25
2022-12-17T20:38:55.090Z,22.88
2022-12-17T20:41:24.485Z,23.95
2022-12-17T20:43:51.635Z,18.85
2022-12-17T20:46:20.067Z,24.08
2022-12-17T20:48:46.839Z,28.10
2022-12-17T20:51:21.542Z,14.05
2022-12-17T20:53:48.177Z,21.23
2022-12-17T20:56:17.703Z,15.73
2022-12-17T20:58:44.368Z,14.25
2022-12-17T21:01:15.470Z,23.70
2022-12-17T21:03:42.969Z,26.35
2022-12-17T21:06:18.609Z,16.08
2022-12-17T21:08:50.535Z,15.25
2022-12-17T21:11:27.045Z,15.40
2022-12-17T21:13:54.818Z,24.10
2022-12-17T21:16:24.713Z,19.08
2022-12-17T21:18:51.313Z,12.95
2022-12-17T21:21:20.452Z,20.95
2022-12-17T21:23:48.076Z,12.48
2022-12-17T21:26:20.626Z,23.33
2022-12-17T21:28:49.481Z,25.00
2022-12-17T21:31:37.970Z,23.67
2022-12-17T21:34:06.541Z,21.27
2022-12-17T21:36:34.083Z,29.63
2022-12-17T21:39:01.287Z,27.83
2022-12-17T21:41:32.432Z,28.58
2022-12-17T21:44:01.415Z,33.28
2022-12-17T21:46:29.152Z,36.45
2022-12-17T21:49:01.033Z,23.92
2022-12-17T21:51:29.011Z,27.10
2022-12-17T21:53:58.766Z,21.23
2022-12-17T21:56:26.779Z,27.70
2022-12-17T21:58:58.852Z,24.45
2022-12-17T22:01:29.578Z,20.70
2022-12-17T22:03:58.664Z,29.20
2022-12-17T22:06:31.788Z,33.85
2022-12-17T22:09:03.856Z,29.40
2022-12-17T22:11:39.694Z,39.53
2022-12-17T22:14:09.109Z,28.45
2022-12-17T22:16:43.368Z,36.97
2022-12-17T22:19:12.352Z,35.40
2022-12-17T22:21:40.515Z,41.47
2022-12-17T22:24:07.577Z,35.35
2022-12-17T22:26:34.440Z,34.05
2022-12-17T22:29:01.171Z,31.15
2022-12-17T22:31:46.632Z,27.27
2022-12-17T22:35:32.686Z,27.70
2022-12-17T22:39:21.242Z,33.50
2022-12-17T22:44:07.740Z,19.02
2022-12-17T22:44:38.221Z,15.73
2022-12-17T22:45:40.729Z,16.75
2022-12-17T22:48:09.499Z,23.40
2022-12-17T22:50:38.392Z,24.77
2022-12-17T22:53:09.703Z,26.75
2022-12-17T22:55:37.118Z,33.40
2022-12-17T22:58:04.294Z,39.92
2022-12-17T23:00:34.985Z,48.13
2022-12-17T23:03:02.516Z,29.02
2022-12-17T23:05:29.712Z,21.55
2022-12-17T23:07:57.615Z,26.45
2022-12-17T23:10:25.805Z,32.80
2022-12-17T23:12:56.874Z,20.52
2022-12-17T23:15:36.765Z,18.83
2022-12-17T23:18:06.060Z,31.45
2022-12-17T23:20:35.216Z,30.00
2022-12-17T23:23:01.882Z,17.60
2022-12-17T23:25:29.182Z,24.92
2022-12-17T23:27:56.135Z,22.50
2022-12-17T23:30:23.048Z,19.92
2022-12-17T23:32:49.943Z,22.90
2022-12-17T23:35:16.625Z,22.38
2022-12-17T23:37:43.304Z,21.58
2022-12-17T23:40:11.044Z,26.67
2022-12-17T23:42:38.440Z,18.45
2022-12-17T23:45:06.681Z,20.30
2022-12-17T23:47:33.247Z,25.90
2022-12-17T23:49:59.851Z,14.15
2022-12-17T23:52:26.541Z,29.73
2022-12-17T23:54:53.209Z,18.63
2022-12-17T23:57:19.991Z,20.83
2022-12-17T23:59:46.716Z,29.20
